Time;durP1;ratioP1;P1;durP2;ratioP2;P2;SDS_P1;SDS_P2;PMS_P1;PMS_P2;Temp;Humidity;BMP_temperature;BMP_pressure;BME280_temperature;BME280_humidity;BME280_pressure;Samples;Min_cycle;Max_cycle;Signal;HPM_P1;HPM_P2
2022/06/04 00:02:16;;;;;;;9.15;5.03;;;;;;;;;;10157304;28;20500;-62
2022/06/04 00:07:16;;;;;;;5.60;4.97;;;;;;;;;;10162908;28;20077;-62
2022/06/04 00:17:30;;;;;;;7.25;5.72;;;;;;;;;;10156050;28;20535;-61
2022/06/04 00:22:30;;;;;;;6.32;5.10;;;;;;;;;;10155832;28;20042;-62
2022/06/04 00:27:28;;;;;;;7.88;5.47;;;;;;;;;;10160780;28;20089;-64
2022/06/04 00:32:26;;;;;;;4.88;4.18;;;;;;;;;;10235330;28;20045;-62
2022/06/04 00:37:25;;;;;;;7.78;4.30;;;;;;;;;;10235570;28;20046;-62
2022/06/04 00:42:25;;;;;;;6.93;4.25;;;;;;;;;;10235342;28;20056;-62
2022/06/04 00:47:26;;;;;;;9.50;3.90;;;;;;;;;;10235971;28;20084;-62
2022/06/04 00:52:25;;;;;;;5.88;3.47;;;;;;;;;;10235907;28;20080;-62
2022/06/04 00:57:38;;;;;;;5.75;4.20;;;;;;;;;;10235061;28;20080;-62
2022/06/04 01:02:43;;;;;;;5.63;4.15;;;;;;;;;;10222534;28;20095;-62
2022/06/04 01:07:53;;;;;;;7.85;4.90;;;;;;;;;;10234338;28;20117;-62
2022/06/04 01:12:55;;;;;;;9.57;4.63;;;;;;;;;;10246449;28;20487;-62
2022/06/04 01:18:03;;;;;;;5.28;4.30;;;;;;;;;;10234302;28;20487;-62
2022/06/04 01:23:16;;;;;;;9.02;4.25;;;;;;;;;;10233519;28;20064;-62
2022/06/04 01:28:16;;;;;;;8.52;4.90;;;;;;;;;;10225603;28;20089;-62
2022/06/04 01:33:18;;;;;;;6.35;5.10;;;;;;;;;;10235103;28;20073;-62
2022/06/04 01:38:20;;;;;;;10.00;5.72;;;;;;;;;;10234123;28;20052;-62
2022/06/04 01:43:21;;;;;;;10.15;6.40;;;;;;;;;;10234044;28;20046;-62
2022/06/04 01:48:21;;;;;;;14.85;7.32;;;;;;;;;;10238381;28;20091;-63
2022/06/04 01:53:21;;;;;;;7.03;5.65;;;;;;;;;;10241273;28;20069;-62
2022/06/04 01:58:22;;;;;;;7.90;7.10;;;;;;;;;;10241007;28;20060;-61
2022/06/04 02:03:23;;;;;;;11.30;6.57;;;;;;;;;;10240918;28;20246;-61
2022/06/04 02:08:23;;;;;;;6.60;5.35;;;;;;;;;;10240635;28;20081;-61
2022/06/04 02:13:24;;;;;;;7.25;5.32;;;;;;;;;;10240631;28;20042;-61
2022/06/04 02:18:22;;;;;;;15.45;5.95;;;;;;;;;;10240533;28;20080;-61
2022/06/04 02:23:21;;;;;;;10.65;5.35;;;;;;;;;;10240119;28;20065;-60
2022/06/04 02:28:20;;;;;;;7.45;4.95;;;;;;;;;;10239755;28;20601;-61
2022/06/04 02:33:23;;;;;;;8.90;5.25;;;;;;;;;;10239937;28;20045;-62
2022/06/04 02:38:24;;;;;;;5.75;4.70;;;;;;;;;;10239832;28;20076;-62
2022/06/04 02:43:29;;;;;;;7.40;4.78;;;;;;;;;;10239451;28;20498;-62
2022/06/04 02:48:31;;;;;;;11.48;5.63;;;;;;;;;;10240075;28;20470;-62
2022/06/04 02:53:31;;;;;;;6.30;5.63;;;;;;;;;;10239480;28;20061;-62
2022/06/04 02:58:31;;;;;;;8.57;5.10;;;;;;;;;;10238391;28;20052;-62
2022/06/04 03:03:31;;;;;;;8.18;5.20;;;;;;;;;;10238568;28;20074;-62
2022/06/04 03:08:30;;;;;;;9.07;5.47;;;;;;;;;;10238382;28;20084;-62
2022/06/04 03:13:29;;;;;;;7.55;5.38;;;;;;;;;;10238503;28;20048;-61
2022/06/04 03:18:28;;;;;;;8.45;5.78;;;;;;;;;;10238560;28;20073;-62
2022/06/04 03:23:27;;;;;;;8.98;4.95;;;;;;;;;;10238255;28;20057;-62
2022/06/04 03:28:26;;;;;;;8.43;5.00;;;;;;;;;;10237914;28;20119;-62
2022/06/04 03:33:24;;;;;;;9.48;4.53;;;;;;;;;;10237861;28;20053;-62
2022/06/04 03:38:22;;;;;;;7.18;4.57;;;;;;;;;;10237230;28;20084;-61
2022/06/04 03:43:22;;;;;;;7.38;5.22;;;;;;;;;;10237140;28;20049;-61
2022/06/04 03:48:22;;;;;;;7.85;4.85;;;;;;;;;;10236742;28;20091;-62
2022/06/04 03:53:20;;;;;;;6.15;4.28;;;;;;;;;;10236567;28;20072;-62
2022/06/04 03:58:18;;;;;;;9.88;4.85;;;;;;;;;;10250383;28;20080;-62
2022/06/04 04:03:19;;;;;;;8.48;4.85;;;;;;;;;;10236422;28;20045;-62
2022/06/04 04:08:18;;;;;;;6.70;4.53;;;;;;;;;;10238660;28;20079;-62
2022/06/04 04:13:17;;;;;;;5.72;4.68;;;;;;;;;;10264257;28;20059;-62
2022/06/04 04:18:15;;;;;;;9.25;4.60;;;;;;;;;;10272398;28;20084;-62
2022/06/04 04:23:16;;;;;;;8.27;4.40;;;;;;;;;;10245406;28;20085;-62
2022/06/04 04:28:14;;;;;;;5.85;4.53;;;;;;;;;;10235400;28;20084;-62
2022/06/04 04:33:12;;;;;;;5.82;4.18;;;;;;;;;;10235786;28;20049;-62
2022/06/04 04:38:11;;;;;;;8.52;4.38;;;;;;;;;;10245930;28;20495;-63
2022/06/04 04:43:11;;;;;;;6.68;3.53;;;;;;;;;;10235050;28;20073;-62
2022/06/04 04:48:09;;;;;;;9.70;4.45;;;;;;;;;;10236533;28;20088;-61
2022/06/04 04:53:09;;;;;;;10.18;4.28;;;;;;;;;;10244193;28;20056;-61
2022/06/04 04:58:07;;;;;;;10.15;3.97;;;;;;;;;;10235546;28;20073;-60
2022/06/04 05:03:07;;;;;;;7.93;4.85;;;;;;;;;;10234907;28;20407;-61
2022/06/04 05:08:05;;;;;;;5.93;4.18;;;;;;;;;;10234446;28;20085;-61
2022/06/04 05:13:04;;;;;;;5.05;4.55;;;;;;;;;;10234421;28;20049;-61
2022/06/04 05:18:02;;;;;;;7.05;5.32;;;;;;;;;;10235351;28;20050;-61
2022/06/04 05:23:02;;;;;;;8.90;4.70;;;;;;;;;;10238907;28;20048;-61
2022/06/04 05:28:00;;;;;;;9.63;5.70;;;;;;;;;;10242008;28;20099;-61
2022/06/04 05:32:58;;;;;;;5.30;4.63;;;;;;;;;;10242094;28;20045;-61
2022/06/04 05:37:57;;;;;;;5.90;4.65;;;;;;;;;;10241885;28;20056;-61
2022/06/04 05:42:56;;;;;;;12.80;4.85;;;;;;;;;;10241698;28;20077;-61
2022/06/04 05:47:55;;;;;;;6.15;5.25;;;;;;;;;;10241887;28;20529;-60
2022/06/04 05:52:53;;;;;;;8.48;5.80;;;;;;;;;;10241140;28;20435;-61
2022/06/04 05:57:52;;;;;;;10.15;5.78;;;;;;;;;;10246615;28;20307;-61
2022/06/04 06:02:51;;;;;;;9.77;5.28;;;;;;;;;;10281117;28;20045;-61
2022/06/04 06:07:50;;;;;;;10.75;5.25;;;;;;;;;;10280958;28;20100;-64
2022/06/04 06:12:49;;;;;;;5.25;4.72;;;;;;;;;;10281058;28;20049;-64
2022/06/04 06:17:47;;;;;;;13.18;4.85;;;;;;;;;;10280696;28;20040;-63
2022/06/04 06:22:47;;;;;;;7.32;4.63;;;;;;;;;;10280615;28;20045;-61
2022/06/04 06:27:47;;;;;;;6.95;4.85;;;;;;;;;;10275478;28;20056;-62
2022/06/04 06:32:46;;;;;;;14.38;4.68;;;;;;;;;;10267302;28;20072;-61
2022/06/04 06:37:48;;;;;;;11.77;5.18;;;;;;;;;;10276427;28;20150;-61
2022/06/04 06:42:47;;;;;;;7.53;5.18;;;;;;;;;;10279461;28;20101;-62
2022/06/04 06:47:45;;;;;;;6.03;3.95;;;;;;;;;;10279184;28;20045;-62
2022/06/04 06:52:44;;;;;;;6.93;4.63;;;;;;;;;;10279488;28;20045;-63
2022/06/04 06:57:43;;;;;;;9.30;4.30;;;;;;;;;;10279122;28;20076;-63
2022/06/04 07:02:42;;;;;;;5.53;4.50;;;;;;;;;;10279124;28;20079;-63
2022/06/04 07:07:40;;;;;;;8.00;4.75;;;;;;;;;;10279422;28;20076;-63
2022/06/04 07:12:44;;;;;;;8.98;5.05;;;;;;;;;;10277900;28;20069;-61
2022/06/04 07:17:43;;;;;;;7.10;4.95;;;;;;;;;;10278168;28;20041;-62
2022/06/04 07:22:41;;;;;;;6.80;4.60;;;;;;;;;;10278427;28;20051;-61
2022/06/04 07:27:39;;;;;;;5.25;4.75;;;;;;;;;;10278615;28;20099;-61
2022/06/04 07:32:40;;;;;;;7.68;5.25;;;;;;;;;;10277872;28;20076;-61
2022/06/04 07:37:38;;;;;;;10.95;4.80;;;;;;;;;;10271239;28;20068;-61
2022/06/04 07:42:37;;;;;;;7.43;5.05;;;;;;;;;;10272904;28;20071;-62
2022/06/04 07:47:35;;;;;;;8.90;4.95;;;;;;;;;;10267109;28;20048;-62
2022/06/04 07:52:37;;;;;;;4.68;4.28;;;;;;;;;;10270367;28;20510;-62
2022/06/04 07:57:35;;;;;;;5.15;3.97;;;;;;;;;;10269075;28;20082;-61
2022/06/04 08:02:33;;;;;;;5.38;3.90;;;;;;;;;;10263802;28;20056;-62
2022/06/04 08:07:32;;;;;;;5.93;4.55;;;;;;;;;;10276524;28;20044;-62
2022/06/04 08:12:32;;;;;;;8.98;4.65;;;;;;;;;;10275408;28;20079;-61
2022/06/04 08:17:31;;;;;;;6.00;4.50;;;;;;;;;;10277435;28;20049;-62
2022/06/04 08:22:29;;;;;;;8.10;5.55;;;;;;;;;;10269579;28;20072;-62
2022/06/04 08:27:28;;;;;;;4.78;4.18;;;;;;;;;;10274943;28;20060;-61
2022/06/04 08:32:27;;;;;;;5.03;4.07;;;;;;;;;;10275007;28;20088;-62
2022/06/04 08:37:26;;;;;;;14.27;6.50;;;;;;;;;;10263670;28;20048;-62
2022/06/04 08:42:29;;;;;;;6.82;4.25;;;;;;;;;;10264058;28;20072;-63
2022/06/04 08:47:31;;;;;;;5.75;5.25;;;;;;;;;;10273989;28;20049;-63
2022/06/04 08:52:32;;;;;;;7.20;6.50;;;;;;;;;;10246540;28;20511;-63
2022/06/04 08:57:35;;;;;;;7.95;4.72;;;;;;;;;;10234140;28;20045;-63
2022/06/04 09:02:40;;;;;;;12.45;4.40;;;;;;;;;;10235345;28;20050;-62
2022/06/04 09:07:40;;;;;;;6.25;3.83;;;;;;;;;;10234781;28;20045;-61
2022/06/04 09:12:41;;;;;;;3.97;3.55;;;;;;;;;;10249331;28;20073;-62
2022/06/04 09:17:42;;;;;;;8.45;6.25;;;;;;;;;;10234324;28;20077;-62
2022/06/04 09:22:43;;;;;;;8.05;4.28;;;;;;;;;;10233136;28;20052;-62
2022/06/04 09:27:46;;;;;;;8.40;4.35;;;;;;;;;;10234586;28;20506;-62
2022/06/04 09:32:51;;;;;;;8.38;5.72;;;;;;;;;;10234617;28;20468;-62
2022/06/04 09:37:50;;;;;;;4.40;3.97;;;;;;;;;;10234232;28;20041;-62
2022/06/04 09:42:49;;;;;;;7.95;3.33;;;;;;;;;;10233986;28;20068;-62
2022/06/04 09:48:20;;;;;;;7.72;3.95;;;;;;;;;;10234432;28;20045;-62
2022/06/04 09:53:19;;;;;;;7.72;4.15;;;;;;;;;;10234050;28;20077;-62
2022/06/04 09:58:18;;;;;;;5.00;4.00;;;;;;;;;;10234491;28;20046;-62
2022/06/04 10:03:19;;;;;;;5.53;3.85;;;;;;;;;;10246819;28;20077;-62
2022/06/04 10:08:22;;;;;;;6.32;3.97;;;;;;;;;;10272667;28;21091;-62
2022/06/04 10:18:38;;;;;;;6.35;3.75;;;;;;;;;;10280659;28;20041;-63
2022/06/04 10:23:44;;;;;;;7.75;4.72;;;;;;;;;;10281151;28;20048;-63
2022/06/04 10:28:47;;;;;;;6.40;4.35;;;;;;;;;;10267788;28;20087;-63
2022/06/04 10:33:51;;;;;;;6.07;3.80;;;;;;;;;;10281405;28;20093;-62
2022/06/04 10:38:55;;;;;;;5.68;3.45;;;;;;;;;;10280319;28;20223;-63
2022/06/04 10:44:12;;;;;;;4.30;3.90;;;;;;;;;;10277686;28;20080;-63
2022/06/04 10:49:20;;;;;;;5.28;4.10;;;;;;;;;;10272430;28;20084;-62
2022/06/04 10:54:24;;;;;;;6.78;4.35;;;;;;;;;;10279878;28;20482;-62
2022/06/04 10:59:24;;;;;;;4.10;3.67;;;;;;;;;;10274114;28;20064;-63
2022/06/04 11:04:31;;;;;;;3.88;3.50;;;;;;;;;;10257511;28;20046;-63
2022/06/04 11:09:33;;;;;;;4.35;4.03;;;;;;;;;;10265962;28;20612;-63
2022/06/04 11:14:36;;;;;;;8.05;3.47;;;;;;;;;;10278259;28;20080;-63
2022/06/04 11:19:39;;;;;;;7.53;4.28;;;;;;;;;;10265696;28;20076;-63
2022/06/04 11:24:40;;;;;;;5.20;4.30;;;;;;;;;;10277906;28;20072;-61
2022/06/04 11:29:39;;;;;;;7.10;3.67;;;;;;;;;;10248183;28;20406;-63
2022/06/04 11:34:54;;;;;;;7.78;4.35;;;;;;;;;;10265110;28;20041;-62
2022/06/04 11:40:01;;;;;;;5.63;4.63;;;;;;;;;;10278008;28;20045;-62
2022/06/04 11:45:11;;;;;;;7.25;5.00;;;;;;;;;;10277335;28;20048;-63
2022/06/04 11:50:13;;;;;;;5.53;5.03;;;;;;;;;;10276996;28;20544;-62
2022/06/04 11:55:17;;;;;;;5.45;4.90;;;;;;;;;;10277226;28;20079;-63
2022/06/04 12:00:20;;;;;;;9.50;5.18;;;;;;;;;;10262254;28;20080;-64
2022/06/04 12:05:30;;;;;;;5.80;5.07;;;;;;;;;;10276170;28;20076;-63
2022/06/04 12:10:36;;;;;;;5.72;4.80;;;;;;;;;;10273302;28;20083;-65
2022/06/04 12:15:37;;;;;;;5.35;4.55;;;;;;;;;;10269957;28;20108;-65
2022/06/04 12:26:01;;;;;;;4.78;3.88;;;;;;;;;;10276312;28;20076;-64
2022/06/04 12:31:00;;;;;;;7.10;3.88;;;;;;;;;;10275391;28;20084;-66
2022/06/04 12:36:05;;;;;;;4.78;4.38;;;;;;;;;;10275467;28;20065;-65
2022/06/04 12:41:08;;;;;;;7.15;4.38;;;;;;;;;;10276256;28;20044;-66
2022/06/04 12:46:09;;;;;;;6.13;4.78;;;;;;;;;;10276552;28;20064;-66
2022/06/04 12:51:11;;;;;;;7.93;4.57;;;;;;;;;;10273721;28;20077;-65
2022/06/04 12:56:19;;;;;;;7.38;3.95;;;;;;;;;;10272870;28;20493;-65
2022/06/04 13:01:27;;;;;;;3.78;3.47;;;;;;;;;;10239036;28;20518;-64
2022/06/04 13:06:33;;;;;;;5.20;3.97;;;;;;;;;;10267114;28;20068;-64
2022/06/04 13:11:44;;;;;;;4.30;3.90;;;;;;;;;;10267588;28;20076;-65
2022/06/04 13:16:47;;;;;;;5.63;4.03;;;;;;;;;;10272174;28;20064;-66
2022/06/04 13:21:51;;;;;;;5.63;3.63;;;;;;;;;;10275172;28;20045;-65
2022/06/04 13:26:52;;;;;;;10.13;7.25;;;;;;;;;;10274368;28;20044;-65
2022/06/04 13:31:53;;;;;;;4.80;3.80;;;;;;;;;;10273510;28;20111;-65
2022/06/04 13:36:57;;;;;;;3.80;3.50;;;;;;;;;;10274204;28;20490;-65
2022/06/04 13:42:05;;;;;;;6.45;4.50;;;;;;;;;;10275098;28;20041;-65
2022/06/04 13:47:15;;;;;;;7.32;4.55;;;;;;;;;;10279360;28;20465;-65
2022/06/04 13:52:16;;;;;;;4.50;3.85;;;;;;;;;;10279056;28;20079;-65
2022/06/04 13:57:16;;;;;;;8.25;4.10;;;;;;;;;;10272667;28;20049;-65
2022/06/04 14:02:16;;;;;;;5.30;4.80;;;;;;;;;;10272039;28;20056;-65
2022/06/04 14:07:17;;;;;;;6.07;3.85;;;;;;;;;;10269187;28;20427;-65
2022/06/04 14:12:17;;;;;;;6.72;4.05;;;;;;;;;;10275747;28;20424;-65
2022/06/04 14:17:22;;;;;;;7.70;5.35;;;;;;;;;;10280516;28;20498;-65
2022/06/04 14:22:26;;;;;;;3.97;3.65;;;;;;;;;;10278118;28;20080;-66
2022/06/04 14:27:29;;;;;;;5.45;4.10;;;;;;;;;;10270024;28;20065;-66
2022/06/04 14:32:35;;;;;;;6.47;4.03;;;;;;;;;;10276965;28;20510;-65
2022/06/04 14:37:41;;;;;;;9.25;4.05;;;;;;;;;;10279136;28;20068;-66
2022/06/04 14:42:57;;;;;;;6.78;3.70;;;;;;;;;;10277121;28;20354;-65
2022/06/04 14:48:08;;;;;;;3.90;3.40;;;;;;;;;;10279149;28;20073;-64
2022/06/04 14:53:09;;;;;;;7.20;3.78;;;;;;;;;;10263877;28;20076;-65
2022/06/04 14:58:17;;;;;;;5.28;3.50;;;;;;;;;;10245369;28;20076;-63
2022/06/04 15:03:23;;;;;;;6.78;4.32;;;;;;;;;;10272224;28;20072;-65
2022/06/04 15:08:39;;;;;;;5.93;3.70;;;;;;;;;;10243675;28;20414;-65
2022/06/04 15:13:40;;;;;;;5.00;3.95;;;;;;;;;;10273546;28;20049;-65
2022/06/04 15:18:53;;;;;;;5.20;3.85;;;;;;;;;;10277744;28;20297;-65
2022/06/04 15:24:00;;;;;;;8.57;4.40;;;;;;;;;;10262038;28;20096;-65
2022/06/04 15:34:18;;;;;;;4.30;3.88;;;;;;;;;;10238665;28;20077;-65
2022/06/04 15:39:27;;;;;;;4.75;3.55;;;;;;;;;;10258599;28;20084;-65
2022/06/04 15:44:33;;;;;;;6.53;3.50;;;;;;;;;;10276954;28;20049;-65
2022/06/04 16:00:19;;;;;;;6.20;4.22;;;;;;;;;;10264760;28;20083;-64
2022/06/04 16:05:21;;;;;;;4.22;3.70;;;;;;;;;;10247968;28;20064;-65
2022/06/04 16:10:26;;;;;;;3.97;3.25;;;;;;;;;;10246193;28;20084;-64
2022/06/04 16:15:28;;;;;;;8.68;6.43;;;;;;;;;;10273112;28;20092;-65
2022/06/04 16:20:38;;;;;;;8.90;5.15;;;;;;;;;;10255835;28;20087;-65
2022/06/04 16:25:43;;;;;;;10.55;5.15;;;;;;;;;;10269144;28;20076;-65
2022/06/04 16:30:41;;;;;;;4.70;4.03;;;;;;;;;;10272834;28;20060;-65
2022/06/04 16:35:56;;;;;;;4.75;3.83;;;;;;;;;;10267597;28;20075;-65
2022/06/04 16:46:07;;;;;;;;;;;;;;;;;;10233475;28;20481;-65
2022/06/04 16:51:07;;;;;;;6.22;5.47;;;;;;;;;;10275309;28;19920;-65
2022/06/04 16:56:08;;;;;;;7.45;5.10;;;;;;;;;;10275556;28;20083;-64
2022/06/04 17:01:11;;;;;;;5.25;4.72;;;;;;;;;;10276053;28;20053;-64
2022/06/04 17:06:39;;;;;;;6.22;5.63;;;;;;;;;;10274097;28;20179;-65
2022/06/04 17:11:49;;;;;;;4.88;4.07;;;;;;;;;;10217508;28;20065;-65
2022/06/04 17:16:51;;;;;;;8.52;4.68;;;;;;;;;;10265530;28;20434;-64
2022/06/04 17:21:56;;;;;;;8.60;6.00;;;;;;;;;;10249618;28;20063;-64
2022/06/04 17:27:02;;;;;;;13.60;5.90;;;;;;;;;;10278779;28;20079;-64
2022/06/04 17:32:04;;;;;;;6.60;4.18;;;;;;;;;;10282931;28;20099;-64
2022/06/04 17:37:08;;;;;;;10.53;4.53;;;;;;;;;;10283388;28;20413;-64
2022/06/04 17:42:08;;;;;;;9.02;6.28;;;;;;;;;;10281790;28;20298;-63
2022/06/04 17:47:07;;;;;;;6.18;5.25;;;;;;;;;;10282564;28;20076;-63
2022/06/04 17:52:06;;;;;;;5.75;4.97;;;;;;;;;;10281861;28;20069;-63
2022/06/04 17:57:05;;;;;;;7.85;5.38;;;;;;;;;;10270917;28;20093;-62
2022/06/04 18:02:06;;;;;;;7.22;3.88;;;;;;;;;;10244877;28;20069;-63
2022/06/04 18:07:05;;;;;;;8.55;4.38;;;;;;;;;;10270660;28;20301;-64
2022/06/04 18:12:06;;;;;;;7.28;2.95;;;;;;;;;;10275675;28;20080;-62
2022/06/04 18:17:09;;;;;;;8.25;3.10;;;;;;;;;;10267453;28;20072;-62
2022/06/04 18:22:07;;;;;;;7.53;3.70;;;;;;;;;;10268157;28;20091;-63
2022/06/04 18:27:06;;;;;;;6.03;3.92;;;;;;;;;;10272899;28;20076;-62
2022/06/04 18:32:09;;;;;;;5.30;3.97;;;;;;;;;;10277811;28;20052;-62
2022/06/04 18:37:07;;;;;;;6.07;3.65;;;;;;;;;;10280625;28;20073;-62
2022/06/04 18:57:52;;;;;;;5.78;3.70;;;;;;;;;;10277518;28;20072;-64
2022/06/04 19:02:53;;;;;;;4.82;2.92;;;;;;;;;;10268687;28;20045;-62
2022/06/04 19:18:25;;;;;;;3.67;2.88;;;;;;;;;;10279061;28;20047;-63
2022/06/04 19:28:39;;;;;;;10.98;3.65;;;;;;;;;;10275415;28;20057;-64
2022/06/04 19:33:39;;;;;;;4.57;3.22;;;;;;;;;;10276065;28;20078;-63
2022/06/04 19:38:38;;;;;;;3.63;3.30;;;;;;;;;;10244498;28;20083;-63
2022/06/04 19:43:38;;;;;;;4.70;2.88;;;;;;;;;;10272034;28;20072;-63
2022/06/04 19:48:36;;;;;;;4.03;3.63;;;;;;;;;;10266320;28;20080;-63
2022/06/04 19:58:52;;;;;;;9.80;8.80;;;;;;;;;;10251717;28;20662;-63
2022/06/04 20:03:51;;;;;;;5.80;4.65;;;;;;;;;;10262510;28;20207;-63
2022/06/04 20:08:51;;;;;;;6.20;4.15;;;;;;;;;;10274474;28;20081;-63
2022/06/04 20:13:50;;;;;;;4.43;3.80;;;;;;;;;;10274660;28;20081;-64
2022/06/04 20:18:48;;;;;;;6.45;5.00;;;;;;;;;;10274778;28;20087;-62
2022/06/04 20:23:48;;;;;;;4.35;3.70;;;;;;;;;;10276751;28;20064;-63
2022/06/04 20:28:48;;;;;;;4.68;4.13;;;;;;;;;;10276325;28;20504;-63
2022/06/04 20:33:47;;;;;;;7.47;3.90;;;;;;;;;;10273205;28;20071;-63
2022/06/04 20:38:45;;;;;;;4.72;3.25;;;;;;;;;;10269702;28;20068;-63
2022/06/04 20:43:45;;;;;;;3.70;3.10;;;;;;;;;;10274842;28;20060;-63
2022/06/04 20:48:46;;;;;;;8.93;3.70;;;;;;;;;;10259451;28;20086;-63
2022/06/04 20:53:44;;;;;;;3.88;2.90;;;;;;;;;;10264916;28;20076;-63
2022/06/04 20:58:43;;;;;;;7.65;3.42;;;;;;;;;;10274989;28;20056;-63
2022/06/04 21:03:42;;;;;;;5.57;3.53;;;;;;;;;;10275348;28;20072;-63
2022/06/04 21:08:42;;;;;;;4.90;3.58;;;;;;;;;;10275913;28;20063;-63
2022/06/04 21:13:41;;;;;;;6.28;3.75;;;;;;;;;;10275601;28;20083;-63
2022/06/04 21:18:40;;;;;;;3.95;3.13;;;;;;;;;;10275614;28;20060;-63
2022/06/04 21:23:39;;;;;;;6.22;3.38;;;;;;;;;;10275138;28;20045;-64
2022/06/04 21:28:39;;;;;;;5.70;3.10;;;;;;;;;;10271893;28;20088;-63
2022/06/04 21:33:38;;;;;;;6.45;3.75;;;;;;;;;;10273530;28;20080;-63
2022/06/04 21:38:37;;;;;;;4.10;3.70;;;;;;;;;;10273963;28;20044;-63
2022/06/04 21:43:36;;;;;;;5.43;3.80;;;;;;;;;;10273704;28;20582;-63
2022/06/04 21:48:36;;;;;;;4.40;4.00;;;;;;;;;;10269943;28;20076;-63
2022/06/04 21:53:35;;;;;;;4.97;3.85;;;;;;;;;;10271413;28;20509;-63
2022/06/04 21:58:33;;;;;;;4.22;3.35;;;;;;;;;;10272214;28;20087;-63
2022/06/04 22:03:32;;;;;;;7.68;4.47;;;;;;;;;;10267685;28;20498;-64
2022/06/04 22:08:31;;;;;;;5.35;4.55;;;;;;;;;;10241232;28;20042;-63
2022/06/04 22:13:30;;;;;;;5.32;3.67;;;;;;;;;;10241630;28;20042;-63
2022/06/04 22:18:28;;;;;;;6.25;4.28;;;;;;;;;;10243518;28;20072;-63
2022/06/04 22:23:26;;;;;;;5.57;4.15;;;;;;;;;;10280781;28;20052;-63
2022/06/04 22:28:26;;;;;;;5.85;4.38;;;;;;;;;;10280939;28;20079;-63
2022/06/04 22:33:24;;;;;;;8.02;4.32;;;;;;;;;;10280762;28;20045;-63
2022/06/04 22:38:25;;;;;;;4.75;4.00;;;;;;;;;;10280514;28;20080;-63
2022/06/04 22:43:25;;;;;;;7.20;3.72;;;;;;;;;;10280405;28;20041;-63
2022/06/04 22:48:24;;;;;;;5.05;4.47;;;;;;;;;;10280493;28;20500;-63
2022/06/04 22:53:22;;;;;;;5.10;4.55;;;;;;;;;;10279933;28;20037;-63
2022/06/04 22:58:21;;;;;;;4.72;3.78;;;;;;;;;;10279726;28;20083;-63
2022/06/04 23:03:23;;;;;;;5.97;4.20;;;;;;;;;;10279644;28;20160;-63
2022/06/04 23:08:21;;;;;;;5.82;3.80;;;;;;;;;;10279447;28;20037;-62
2022/06/04 23:23:52;;;;;;;5.90;4.20;;;;;;;;;;10279068;28;20033;-64
2022/06/04 23:28:52;;;;;;;7.15;4.00;;;;;;;;;;10279111;28;20064;-63
2022/06/04 23:33:52;;;;;;;4.20;3.67;;;;;;;;;;10278176;28;20040;-62
2022/06/04 23:38:50;;;;;;;3.97;3.33;;;;;;;;;;10266052;28;20072;-62
2022/06/04 23:43:48;;;;;;;4.30;3.03;;;;;;;;;;10237797;28;20046;-63
2022/06/04 23:48:47;;;;;;;4.20;3.08;;;;;;;;;;10237339;28;20042;-62
2022/06/04 23:53:47;;;;;;;3.65;3.08;;;;;;;;;;10237222;28;20042;-62
2022/06/04 23:58:45;;;;;;;5.40;2.97;;;;;;;;;;10237150;28;20614;-63
